createdAt,value
2019-02-17T00:00:35.382Z,84.40
2019-02-17T00:03:36.667Z,84.10
2019-02-17T00:06:38.238Z,84.20
2019-02-17T00:09:39.199Z,84.70
2019-02-17T00:12:40.743Z,85.00
2019-02-17T00:15:42.398Z,85.00
2019-02-17T00:18:44.182Z,85.20
2019-02-17T00:21:45.195Z,85.60
2019-02-17T00:24:46.267Z,85.40
2019-02-17T00:27:47.655Z,85.20
2019-02-17T00:30:49.575Z,85.00
2019-02-17T00:33:49.599Z,85.10
2019-02-17T00:36:58.367Z,85.20
2019-02-17T00:39:59.802Z,85.40
2019-02-17T00:43:01.062Z,85.20
2019-02-17T00:46:02.446Z,85.70
2019-02-17T00:49:03.575Z,85.60
2019-02-17T00:52:05.568Z,86.10
2019-02-17T00:55:07.014Z,86.70
2019-02-17T00:58:08.819Z,86.80
2019-02-17T01:01:10.234Z,87.00
2019-02-17T01:04:12.030Z,87.30
2019-02-17T01:07:13.234Z,87.70
2019-02-17T01:10:14.863Z,87.80
2019-02-17T01:13:16.031Z,87.10
2019-02-17T01:16:17.706Z,87.40
2019-02-17T01:19:19.343Z,87.30
2019-02-17T01:22:09.043Z,86.80
2019-02-17T01:25:17.756Z,86.80
2019-02-17T01:28:19.418Z,87.20
2019-02-17T01:31:21.131Z,87.70
2019-02-17T01:34:22.943Z,87.30
2019-02-17T01:37:24.832Z,87.10
2019-02-17T01:40:26.498Z,87.40
2019-02-17T01:43:27.691Z,87.90
2019-02-17T01:46:28.683Z,87.90
2019-02-17T01:49:30.156Z,87.90
2019-02-17T01:52:32.183Z,87.60
2019-02-17T01:55:33.118Z,87.50
2019-02-17T01:58:34.542Z,87.60
2019-02-17T02:01:35.994Z,87.00
2019-02-17T02:04:37.732Z,87.10
2019-02-17T02:07:38.836Z,87.20
2019-02-17T02:10:39.940Z,87.30
2019-02-17T02:13:41.435Z,87.60
2019-02-17T02:16:43.235Z,87.50
2019-02-17T02:19:44.279Z,88.00
2019-02-17T02:22:45.219Z,87.80
2019-02-17T02:25:46.054Z,87.60
2019-02-17T02:28:47.464Z,87.40
2019-02-17T02:31:49.293Z,87.90
2019-02-17T02:34:50.819Z,88.40
2019-02-17T02:37:51.761Z,88.80
2019-02-17T02:40:53.473Z,88.80
2019-02-17T02:43:54.427Z,88.50
2019-02-17T02:46:55.566Z,88.50
2019-02-17T02:49:56.638Z,89.10
2019-02-17T02:52:57.854Z,89.10
2019-02-17T02:55:59.025Z,88.90
2019-02-17T02:59:00.410Z,89.00
2019-02-17T03:02:02.054Z,89.20
2019-02-17T03:05:03.724Z,89.30
2019-02-17T03:08:03.599Z,89.40
2019-02-17T03:11:05.575Z,89.20
2019-02-17T03:14:07.622Z,89.70
2019-02-17T03:17:08.759Z,89.10
2019-02-17T03:20:09.843Z,88.90
2019-02-17T03:23:11.527Z,89.10
2019-02-17T03:26:12.505Z,88.90
2019-02-17T03:29:14.156Z,88.60
2019-02-17T03:32:15.382Z,89.20
2019-02-17T03:35:16.560Z,89.10
2019-02-17T03:38:17.547Z,88.80
2019-02-17T03:41:18.809Z,88.60
2019-02-17T03:44:20.790Z,88.40
2019-02-17T03:47:22.488Z,88.40
2019-02-17T03:50:23.850Z,89.30
2019-02-17T03:53:25.493Z,88.90
2019-02-17T03:56:26.588Z,88.80
2019-02-17T03:59:28.245Z,88.70
2019-02-17T04:02:29.327Z,89.00
2019-02-17T04:05:30.178Z,88.70
2019-02-17T04:08:30.167Z,89.10
2019-02-17T04:11:31.495Z,89.20
2019-02-17T04:14:33.231Z,89.60
2019-02-17T04:17:34.370Z,89.80
2019-02-17T04:20:34.722Z,89.90
2019-02-17T04:23:35.786Z,90.30
2019-02-17T04:26:37.109Z,90.30
2019-02-17T04:29:44.062Z,90.10
2019-02-17T04:32:45.023Z,90.00
2019-02-17T04:35:46.410Z,90.90
2019-02-17T04:38:47.794Z,91.50
2019-02-17T04:41:49.503Z,91.60
2019-02-17T04:44:50.431Z,91.80
2019-02-17T04:47:52.011Z,91.70
2019-02-17T04:50:51.835Z,91.30
2019-02-17T04:54:00.636Z,90.80
2019-02-17T04:57:01.591Z,90.80
2019-02-17T05:00:03.015Z,90.80
2019-02-17T05:03:03.996Z,90.50
2019-02-17T05:06:05.743Z,90.20
2019-02-17T05:12:28.986Z,90.30
2019-02-17T05:15:36.149Z,90.20
2019-02-17T05:18:38.025Z,90.00
2019-02-17T05:21:39.038Z,90.10
2019-02-17T05:24:40.171Z,90.20
2019-02-17T05:27:41.230Z,90.30
2019-02-17T05:30:52.298Z,90.30
2019-02-17T05:33:46.262Z,90.90
2019-02-17T05:36:47.371Z,91.00
2019-02-17T05:39:49.064Z,90.70
2019-02-17T05:42:50.643Z,90.90
2019-02-17T05:48:58.822Z,91.30
2019-02-17T05:52:00.202Z,90.90
2019-02-17T05:55:06.892Z,90.90
2019-02-17T05:58:08.059Z,90.50
2019-02-17T06:01:10.482Z,90.60
2019-02-17T06:04:11.874Z,90.70
2019-02-17T06:07:13.093Z,90.80
2019-02-17T06:10:14.523Z,91.00
2019-02-17T06:13:15.834Z,91.00
2019-02-17T06:19:24.679Z,91.00
2019-02-17T06:22:25.871Z,90.90
2019-02-17T06:25:27.020Z,90.80
2019-02-17T06:28:27.059Z,90.80
2019-02-17T06:34:56.182Z,90.80
2019-02-17T06:37:57.521Z,90.70
2019-02-17T06:40:59.135Z,90.70
2019-02-17T06:44:00.477Z,90.70
2019-02-17T06:50:12.098Z,90.50
2019-02-17T06:53:13.879Z,90.80
2019-02-17T06:59:48.577Z,90.90
2019-02-17T07:02:50.344Z,91.10
2019-02-17T07:06:11.216Z,91.20
2019-02-17T07:09:12.419Z,91.30
2019-02-17T07:12:13.455Z,91.20
2019-02-17T07:15:14.928Z,91.30
2019-02-17T07:18:22.140Z,91.20
2019-02-17T07:21:23.618Z,91.30
2019-02-17T07:24:25.047Z,91.20
2019-02-17T07:27:26.227Z,91.40
2019-02-17T07:30:27.170Z,91.30
2019-02-17T07:33:29.070Z,91.20
2019-02-17T07:36:29.159Z,91.10
2019-02-17T07:39:38.008Z,91.10
2019-02-17T07:42:39.023Z,91.40
2019-02-17T07:45:39.859Z,91.40
2019-02-17T07:48:47.454Z,91.40
2019-02-17T07:51:49.542Z,91.50
2019-02-17T07:54:51.186Z,91.90
2019-02-17T07:57:53.102Z,91.60
2019-02-17T08:00:54.282Z,91.50
2019-02-17T08:03:55.363Z,91.30
2019-02-17T08:06:57.260Z,91.30
2019-02-17T08:10:00.606Z,91.30
2019-02-17T08:13:00.843Z,91.20
2019-02-17T08:16:02.111Z,91.10
2019-02-17T08:19:09.363Z,90.90
2019-02-17T08:22:11.200Z,90.70
2019-02-17T08:25:21.466Z,90.40
2019-02-17T08:28:15.295Z,90.00
2019-02-17T08:31:16.411Z,89.50
2019-02-17T08:34:18.102Z,89.00
2019-02-17T08:37:19.579Z,87.80
2019-02-17T08:40:21.277Z,86.20
2019-02-17T08:43:22.265Z,84.90
2019-02-17T08:46:23.446Z,83.40
2019-02-17T08:52:32.363Z,81.70
2019-02-17T08:55:33.422Z,80.30
2019-02-17T08:58:34.543Z,80.20
2019-02-17T09:01:36.223Z,78.00
2019-02-17T09:04:38.089Z,76.50
2019-02-17T09:07:39.530Z,76.00
2019-02-17T09:10:41.239Z,74.30
2019-02-17T09:13:41.311Z,72.50
2019-02-17T09:16:50.185Z,71.30
2019-02-17T09:19:57.341Z,70.60
2019-02-17T09:22:58.962Z,69.60
2019-02-17T09:25:58.822Z,67.00
2019-02-17T09:29:00.006Z,66.90
2019-02-17T09:32:01.124Z,64.60
2019-02-17T09:35:02.574Z,65.00
2019-02-17T09:38:05.068Z,63.30
2019-02-17T09:41:05.903Z,62.50
2019-02-17T09:44:07.151Z,62.40
2019-02-17T09:47:08.820Z,61.30
2019-02-17T09:50:16.202Z,60.40
2019-02-17T09:53:18.173Z,60.00
2019-02-17T09:56:19.119Z,59.80
2019-02-17T09:59:20.949Z,58.90
2019-02-17T10:02:26.444Z,57.40
2019-02-17T10:05:25.443Z,56.80
2019-02-17T10:08:27.359Z,56.60
2019-02-17T10:11:29.126Z,57.60
2019-02-17T10:14:30.688Z,57.00
2019-02-17T10:17:31.907Z,57.40
2019-02-17T10:23:40.540Z,55.50
2019-02-17T10:26:41.679Z,55.70
2019-02-17T10:29:42.859Z,55.20
2019-02-17T10:32:44.762Z,54.60
2019-02-17T10:35:45.506Z,53.80
2019-02-17T10:38:46.993Z,54.10
2019-02-17T10:41:48.140Z,54.40
2019-02-17T10:44:48.219Z,54.00
2019-02-17T10:47:56.874Z,52.40
2019-02-17T10:51:03.860Z,51.70
2019-02-17T10:54:06.345Z,51.70
2019-02-17T10:57:07.630Z,52.00
2019-02-17T11:00:11.953Z,51.00
2019-02-17T11:03:13.069Z,50.40
2019-02-17T11:06:14.014Z,50.60
2019-02-17T11:09:20.271Z,49.40
2019-02-17T11:12:23.609Z,48.40
2019-02-17T11:15:25.469Z,48.50
2019-02-17T11:18:27.580Z,47.80
2019-02-17T11:24:36.539Z,45.80
2019-02-17T11:27:37.665Z,44.50
2019-02-17T11:30:39.394Z,44.50
2019-02-17T11:33:40.915Z,46.00
2019-02-17T11:36:42.244Z,45.10
2019-02-17T11:39:44.179Z,45.60
2019-02-17T11:42:46.131Z,45.60
2019-02-17T11:45:47.551Z,45.40
2019-02-17T11:48:48.730Z,44.00
2019-02-17T11:51:55.899Z,42.80
2019-02-17T11:54:58.229Z,40.60
2019-02-17T11:58:00.047Z,38.70
2019-02-17T12:01:02.035Z,37.60
2019-02-17T12:04:03.955Z,37.50
2019-02-17T12:07:05.497Z,36.50
2019-02-17T12:10:07.282Z,36.10
2019-02-17T12:13:08.800Z,35.40
2019-02-17T12:16:10.270Z,35.60
2019-02-17T12:19:12.282Z,36.50
2019-02-17T12:25:44.377Z,37.30
2019-02-17T12:28:50.278Z,36.40
2019-02-17T12:31:51.566Z,37.20
2019-02-17T12:34:53.344Z,37.30
2019-02-17T12:37:54.600Z,37.40
2019-02-17T12:40:54.730Z,37.70
2019-02-17T12:44:03.706Z,37.60
2019-02-17T12:47:05.545Z,37.50
2019-02-17T12:50:06.680Z,36.90
2019-02-17T12:53:13.755Z,36.60
2019-02-17T12:56:15.365Z,36.20
2019-02-17T12:59:16.995Z,36.40
2019-02-17T13:02:18.746Z,36.30
2019-02-17T13:05:20.195Z,35.70
2019-02-17T13:08:21.817Z,35.70
2019-02-17T13:11:23.460Z,35.40
2019-02-17T13:14:25.323Z,35.10
2019-02-17T13:17:26.337Z,35.50
2019-02-17T13:20:28.152Z,36.00
2019-02-17T13:26:36.714Z,36.80
2019-02-17T13:29:40.201Z,37.10
2019-02-17T13:32:42.143Z,37.20
2019-02-17T13:35:43.945Z,38.20
2019-02-17T13:38:45.619Z,38.70
2019-02-17T13:41:46.679Z,38.50
2019-02-17T13:44:48.006Z,38.10
2019-02-17T13:47:48.303Z,37.70
2019-02-17T13:50:49.270Z,37.20
2019-02-17T13:53:57.102Z,38.00
2019-02-17T13:56:58.958Z,37.10
2019-02-17T14:00:00.554Z,37.30
2019-02-17T14:03:04.475Z,36.50
2019-02-17T14:06:05.633Z,36.00
2019-02-17T14:09:07.274Z,36.10
2019-02-17T14:12:08.867Z,36.20
2019-02-17T14:15:10.122Z,35.00
2019-02-17T14:18:11.534Z,34.90
2019-02-17T14:21:13.499Z,35.10
2019-02-17T14:24:21.018Z,35.30
2019-02-17T14:27:23.076Z,34.90
2019-02-17T14:30:24.820Z,35.50
2019-02-17T14:33:26.455Z,34.80
2019-02-17T14:36:28.138Z,34.30
2019-02-17T14:39:30.140Z,34.80
2019-02-17T14:42:31.447Z,33.60
2019-02-17T14:45:31.541Z,33.60
2019-02-17T14:52:05.894Z,34.40
2019-02-17T14:58:35.558Z,34.40
2019-02-17T15:01:37.035Z,33.90
2019-02-17T15:04:38.119Z,34.20
2019-02-17T15:07:40.004Z,33.60
2019-02-17T15:10:41.878Z,33.70
2019-02-17T15:13:43.149Z,33.70
2019-02-17T15:16:44.435Z,34.10
2019-02-17T15:19:45.719Z,34.30
2019-02-17T15:22:46.788Z,34.20
2019-02-17T15:29:14.426Z,34.40
2019-02-17T15:32:16.278Z,34.90
2019-02-17T15:35:17.822Z,35.00
2019-02-17T15:38:19.660Z,35.20
2019-02-17T15:41:21.042Z,35.70
2019-02-17T15:44:21.632Z,36.00
2019-02-17T15:53:22.747Z,37.20
2019-02-17T16:02:58.459Z,37.80
2019-02-17T16:05:59.467Z,38.00
2019-02-17T16:09:00.861Z,37.90
2019-02-17T16:15:09.156Z,39.40
2019-02-17T16:18:10.579Z,39.60
2019-02-17T16:21:13.122Z,40.20
2019-02-17T16:24:14.530Z,40.70
2019-02-17T16:30:23.579Z,41.70
2019-02-17T16:33:24.693Z,42.10
2019-02-17T16:36:25.835Z,42.60
2019-02-17T16:39:27.178Z,43.00
2019-02-17T16:42:29.083Z,43.20
2019-02-17T16:45:30.623Z,43.70
2019-02-17T16:48:36.542Z,44.30
2019-02-17T16:51:44.246Z,44.60
2019-02-17T16:54:46.159Z,44.70
2019-02-17T17:00:55.234Z,45.30
2019-02-17T17:03:56.283Z,45.60
2019-02-17T17:06:57.534Z,45.90
2019-02-17T17:09:59.455Z,46.40
2019-02-17T17:13:01.129Z,46.80
2019-02-17T17:16:02.888Z,47.00
2019-02-17T17:19:04.350Z,47.30
2019-02-17T17:22:06.359Z,47.70
2019-02-17T17:25:07.788Z,47.90
2019-02-17T17:31:17.662Z,48.40
2019-02-17T17:34:19.299Z,48.40
2019-02-17T17:37:20.547Z,48.80
2019-02-17T17:40:21.498Z,48.80
2019-02-17T17:43:22.656Z,49.10
2019-02-17T17:46:23.826Z,49.60
2019-02-17T17:49:25.913Z,49.90
2019-02-17T17:52:27.870Z,50.20
2019-02-17T17:55:34.020Z,50.60
2019-02-17T18:01:42.382Z,52.10
2019-02-17T18:04:43.686Z,52.00
2019-02-17T18:07:44.599Z,52.40
2019-02-17T18:10:46.438Z,52.50
2019-02-17T18:13:47.538Z,52.90
2019-02-17T18:16:49.388Z,53.50
2019-02-17T18:19:51.251Z,54.10
2019-02-17T18:22:52.507Z,54.90
2019-02-17T18:25:53.565Z,55.40
2019-02-17T18:32:02.416Z,55.80
2019-02-17T18:35:04.146Z,55.40
2019-02-17T18:38:05.508Z,55.10
2019-02-17T18:41:06.702Z,55.60
2019-02-17T18:44:07.868Z,55.50
2019-02-17T18:47:09.250Z,55.60
2019-02-17T18:50:11.714Z,56.10
2019-02-17T18:53:15.305Z,56.50
2019-02-17T18:56:17.184Z,57.10
2019-02-17T19:02:25.679Z,57.20
2019-02-17T19:05:31.992Z,57.00
2019-02-17T19:08:29.782Z,57.00
2019-02-17T19:11:30.792Z,57.00
2019-02-17T19:14:32.523Z,57.00
2019-02-17T19:17:33.987Z,57.20
2019-02-17T19:20:35.360Z,57.70
2019-02-17T19:23:37.356Z,58.10
2019-02-17T19:26:38.745Z,58.20
2019-02-17T19:32:46.783Z,58.40
2019-02-17T19:35:48.608Z,58.30
2019-02-17T19:38:50.163Z,58.10
2019-02-17T19:41:50.545Z,58.00
2019-02-17T19:44:51.618Z,57.70
2019-02-17T19:47:53.420Z,57.60
2019-02-17T19:50:55.313Z,57.50
2019-02-17T19:53:56.871Z,57.40
2019-02-17T19:56:59.039Z,58.00
2019-02-17T20:06:34.316Z,58.50
2019-02-17T20:12:45.330Z,58.50
2019-02-17T20:15:46.822Z,58.90
2019-02-17T20:18:48.708Z,59.10
2019-02-17T20:21:49.858Z,59.20
2019-02-17T20:24:58.807Z,59.10
2019-02-17T20:28:00.881Z,59.20
2019-02-17T20:34:09.863Z,59.20
2019-02-17T20:37:11.010Z,59.10
2019-02-17T20:40:12.628Z,59.00
2019-02-17T20:43:14.109Z,59.00
2019-02-17T20:46:14.086Z,59.30
2019-02-17T20:52:48.303Z,59.00
2019-02-17T20:55:49.510Z,59.20
2019-02-17T20:58:51.114Z,59.40
2019-02-17T21:04:59.063Z,59.20
2019-02-17T21:07:59.571Z,59.50
2019-02-17T21:11:01.411Z,59.90
2019-02-17T21:14:03.334Z,60.20
2019-02-17T21:17:05.040Z,61.60
2019-02-17T21:20:06.415Z,62.40
2019-02-17T21:23:08.418Z,63.10
2019-02-17T21:26:09.511Z,63.60
2019-02-17T21:29:10.702Z,64.00
2019-02-17T21:35:19.493Z,64.80
2019-02-17T21:38:21.451Z,65.10
2019-02-17T21:41:22.282Z,65.80
2019-02-17T21:44:23.743Z,65.50
2019-02-17T21:47:25.569Z,65.90
2019-02-17T21:50:26.610Z,66.00
2019-02-17T21:53:27.868Z,66.00
2019-02-17T21:56:29.047Z,66.10
2019-02-17T21:59:32.499Z,66.30
2019-02-17T22:05:40.826Z,66.60
2019-02-17T22:08:41.891Z,67.00
2019-02-17T22:11:43.742Z,67.50
2019-02-17T22:14:45.254Z,67.40
2019-02-17T22:17:46.147Z,67.60
2019-02-17T22:20:48.025Z,67.40
2019-02-17T22:23:49.380Z,67.70
2019-02-17T22:26:50.504Z,68.10
2019-02-17T22:29:51.931Z,68.40
2019-02-17T22:35:59.840Z,69.00
2019-02-17T22:39:01.782Z,68.90
2019-02-17T22:42:03.187Z,69.00
2019-02-17T22:45:04.391Z,68.70
2019-02-17T22:48:05.699Z,68.90
2019-02-17T22:51:07.640Z,69.40
2019-02-17T22:54:09.314Z,69.70
2019-02-17T22:57:10.317Z,69.90
2019-02-17T23:00:11.463Z,69.90
2019-02-17T23:06:20.295Z,70.20
2019-02-17T23:09:22.294Z,70.40
2019-02-17T23:12:23.323Z,70.80
2019-02-17T23:15:24.900Z,71.70
2019-02-17T23:18:24.787Z,72.20
2019-02-17T23:21:26.679Z,72.40
2019-02-17T23:24:27.650Z,72.00
2019-02-17T23:27:28.764Z,71.60
2019-02-17T23:30:30.392Z,71.90
2019-02-17T23:36:38.651Z,72.30
2019-02-17T23:39:39.979Z,73.10
2019-02-17T23:42:41.600Z,72.80
2019-02-17T23:45:44.676Z,72.90
2019-02-17T23:48:46.126Z,73.80
2019-02-17T23:51:47.894Z,75.00
2019-02-17T23:54:48.859Z,75.00
2019-02-17T23:57:50.118Z,74.80
